Wiesbaden Army Airfield ETOU

Flugplatz Daten

Name: Wiesbaden Army Airfield

Ident: ETOU

Lat: 50,04980087

Long: 8,325400352

Platzhöhe: 461 ft

IataCode: WIE

City: Wiesbaden

Metar

2021/10/25 22:56
ETOU 252256Z AUTO 00000KT 9999 BKN050 07/05 A3013 RMK AO2 SLP210 T00740045 401101008

Taf

2021/10/25 12:03
TAF TAF ETOU 251200Z 2512/2618 18003KT 9000 BR FEW025 SCT050 QNH3016INS
BECMG 2515/2516 18005KT 9999 NSW SCT040 BKN055 QNH3013INS
BECMG 2518/2519 23003KT 9000 BR SCT040 BKN050 QNH3012INS
BECMG 2521/2522 24003KT 9000 BR SCT025 BKN030 QNH3012INS
BECMG 2523/2524 23003KT 6000 BR BKN005 OVC012 QNH3014INS
BECMG 2603/2604 22003KT 2400 BR OVC010 QNH3016INS
BECMG 2605/2606 VRB01KT 0800 FG VV001 QNH3016INS
BECMG 2610/2612 24007KT 3200 BR SCT012 BKN020 QNH3018INS TX11/2514Z TNM02/2603Z
Gewünschte Webcam nicht vorhanden? Dann fügen Sie eine hinzu. Sie wird dann so schnell wie möglich freigeschaltet
Url: Title: